createdAt,value
2018-11-28T00:00:39.404Z,25.10
2018-11-28T00:01:39.397Z,25.50
2018-11-28T00:02:39.384Z,27.10
2018-11-28T00:03:39.371Z,25.30
2018-11-28T00:04:39.359Z,25.90
2018-11-28T00:05:39.350Z,25.50
2018-11-28T00:06:39.334Z,25.20
2018-11-28T00:07:39.325Z,25.40
2018-11-28T00:08:39.317Z,24.40
2018-11-28T00:09:39.301Z,21.00
2018-11-28T00:10:39.292Z,21.70
2018-11-28T00:11:39.287Z,20.10
2018-11-28T00:12:39.275Z,19.60
2018-11-28T00:13:39.261Z,20.50
2018-11-28T00:14:39.252Z,20.10
2018-11-28T00:15:39.237Z,20.90
2018-11-28T00:16:39.230Z,21.50
2018-11-28T00:17:39.222Z,21.40
2018-11-28T00:18:39.208Z,20.10
2018-11-28T00:19:39.197Z,20.70
2018-11-28T00:20:39.187Z,21.20
2018-11-28T00:21:39.176Z,20.30
2018-11-28T00:22:39.165Z,21.60
2018-11-28T00:23:39.155Z,22.10
2018-11-28T00:24:39.140Z,22.40
2018-11-28T00:25:39.133Z,24.10
2018-11-28T00:26:39.120Z,19.50
2018-11-28T00:27:39.112Z,19.90
2018-11-28T00:28:39.099Z,22.20
2018-11-28T00:29:39.091Z,22.20
2018-11-28T00:30:39.083Z,22.20
2018-11-28T00:31:39.065Z,21.50
2018-11-28T00:32:39.057Z,18.60
2018-11-28T00:33:39.044Z,19.00
2018-11-28T00:34:39.034Z,18.70
2018-11-28T00:35:39.028Z,17.50
2018-11-28T00:36:39.014Z,17.50
2018-11-28T00:37:39.006Z,18.10
2018-11-28T00:38:38.993Z,18.40
2018-11-28T00:39:38.982Z,17.60
2018-11-28T00:40:38.976Z,16.70
2018-11-28T00:41:38.960Z,16.80
2018-11-28T00:42:38.951Z,16.60
2018-11-28T00:43:38.939Z,16.60
2018-11-28T00:44:38.928Z,17.10
2018-11-28T00:45:38.914Z,16.20
2018-11-28T00:46:38.909Z,16.30
2018-11-28T00:47:38.897Z,15.90
2018-11-28T00:48:38.884Z,16.70
2018-11-28T00:49:38.874Z,15.00
2018-11-28T00:50:38.863Z,15.00
2018-11-28T00:51:38.850Z,15.60
2018-11-28T00:52:38.842Z,15.30
2018-11-28T00:53:38.829Z,15.30
2018-11-28T00:54:38.820Z,16.40
2018-11-28T00:55:38.807Z,16.70
2018-11-28T00:56:38.797Z,16.20
2018-11-28T00:57:38.794Z,15.30
2018-11-28T00:58:38.776Z,15.30
2018-11-28T00:59:38.763Z,16.70
2018-11-28T01:00:38.754Z,17.60
2018-11-28T01:01:38.745Z,18.20
2018-11-28T01:02:39.593Z,18.30
2018-11-28T01:03:38.721Z,18.00
2018-11-28T01:04:38.714Z,17.30
2018-11-28T01:05:38.700Z,15.90
2018-11-28T01:06:38.690Z,14.50
2018-11-28T01:07:38.681Z,13.30
2018-11-28T01:08:38.666Z,13.80
2018-11-28T01:09:38.657Z,12.10
2018-11-28T01:10:38.650Z,12.80
2018-11-28T01:11:38.635Z,12.80
2018-11-28T01:12:38.626Z,13.40
2018-11-28T01:13:38.621Z,13.80
2018-11-28T01:14:38.605Z,14.80
2018-11-28T01:15:38.596Z,14.30
2018-11-28T01:16:38.582Z,14.00
2018-11-28T01:17:38.569Z,13.00
2018-11-28T01:18:38.559Z,13.40
2018-11-28T01:19:38.547Z,13.40
2018-11-28T01:20:38.539Z,12.80
2018-11-28T01:21:38.524Z,12.90
2018-11-28T01:22:38.515Z,10.40
2018-11-28T01:23:38.505Z,10.40
2018-11-28T01:24:38.493Z,11.20
2018-11-28T01:25:38.482Z,10.50
2018-11-28T01:26:38.471Z,9.90
2018-11-28T01:27:38.459Z,10.50
2018-11-28T01:28:38.457Z,9.80
2018-11-28T01:29:38.441Z,10.00
2018-11-28T01:30:38.426Z,9.10
2018-11-28T01:31:38.418Z,9.50
2018-11-28T01:32:38.405Z,9.30
2018-11-28T01:33:38.391Z,8.70
2018-11-28T01:34:38.383Z,9.10
2018-11-28T01:35:38.375Z,8.80
2018-11-28T01:36:38.358Z,8.70
2018-11-28T01:37:38.354Z,9.10
2018-11-28T01:38:38.341Z,9.10
2018-11-28T01:39:38.325Z,9.40
2018-11-28T01:40:38.315Z,9.20
2018-11-28T01:41:38.306Z,9.30
2018-11-28T01:42:38.298Z,8.90
2018-11-28T01:43:38.281Z,8.50
2018-11-28T01:44:38.270Z,8.60
2018-11-28T01:45:38.259Z,8.40
2018-11-28T01:46:38.249Z,9.10
2018-11-28T01:47:38.238Z,9.10
2018-11-28T01:48:38.258Z,9.90
2018-11-28T01:49:38.214Z,9.60
2018-11-28T01:50:38.204Z,9.40
2018-11-28T01:51:38.191Z,9.20
2018-11-28T01:52:38.178Z,9.40
2018-11-28T01:53:38.173Z,9.40
2018-11-28T01:54:38.161Z,9.70
2018-11-28T01:55:38.144Z,9.40
2018-11-28T01:56:38.137Z,9.70
2018-11-28T01:57:38.126Z,9.90
2018-11-28T01:58:38.120Z,9.70
2018-11-28T01:59:38.102Z,9.80
2018-11-28T02:00:38.094Z,10.30
2018-11-28T02:01:38.080Z,10.20
2018-11-28T02:02:38.070Z,9.60
2018-11-28T02:03:38.061Z,9.50
2018-11-28T02:04:38.046Z,9.80
2018-11-28T02:05:38.040Z,9.30
2018-11-28T02:06:38.028Z,9.30
2018-11-28T02:07:38.015Z,9.60
2018-11-28T02:08:38.002Z,9.20
2018-11-28T02:09:37.994Z,9.50
2018-11-28T02:10:37.978Z,9.40
2018-11-28T02:11:37.971Z,9.20
2018-11-28T02:12:37.957Z,9.60
2018-11-28T02:13:37.945Z,9.40
2018-11-28T02:14:37.935Z,9.60
2018-11-28T02:15:37.922Z,9.60
2018-11-28T02:16:37.912Z,9.70
2018-11-28T02:17:37.901Z,9.90
2018-11-28T02:18:37.891Z,10.10
2018-11-28T02:19:37.878Z,9.90
2018-11-28T02:20:37.867Z,9.70
2018-11-28T02:21:37.856Z,10.40
2018-11-28T02:22:37.845Z,10.00
2018-11-28T02:23:37.831Z,10.00
2018-11-28T02:24:37.821Z,10.50
2018-11-28T02:25:37.810Z,10.20
2018-11-28T02:26:37.796Z,10.50
2018-11-28T02:27:37.792Z,10.70
2018-11-28T02:28:37.775Z,10.40
2018-11-28T02:29:37.764Z,11.30
2018-11-28T02:30:37.757Z,11.20
2018-11-28T02:31:37.741Z,10.60
2018-11-28T02:32:37.731Z,10.40
2018-11-28T02:33:37.724Z,10.60
2018-11-28T02:34:37.711Z,10.60
2018-11-28T02:35:37.690Z,11.30
2018-11-28T02:36:37.681Z,11.00
2018-11-28T02:37:37.679Z,11.60
2018-11-28T02:38:37.666Z,11.50
2018-11-28T02:39:37.649Z,11.00
2018-11-28T02:40:37.636Z,11.50
2018-11-28T02:41:37.634Z,11.50
2018-11-28T02:42:37.616Z,11.80
2018-11-28T02:43:37.604Z,11.60
2018-11-28T02:44:37.592Z,12.00
2018-11-28T02:45:37.584Z,11.70
2018-11-28T02:46:37.569Z,11.70
2018-11-28T02:47:37.559Z,11.90
2018-11-28T02:48:37.545Z,12.20
2018-11-28T02:49:37.543Z,12.00
2018-11-28T02:50:37.523Z,12.10
2018-11-28T02:51:37.952Z,12.60
2018-11-28T02:52:37.500Z,12.50
2018-11-28T02:53:37.491Z,12.50
2018-11-28T02:54:37.486Z,12.40
2018-11-28T02:55:37.464Z,12.80
2018-11-28T02:56:37.457Z,12.80
2018-11-28T02:57:37.447Z,12.90
2018-11-28T02:58:37.439Z,13.30
2018-11-28T02:59:37.424Z,13.10
2018-11-28T03:00:37.412Z,13.30
2018-11-28T03:01:37.401Z,13.30
2018-11-28T03:02:37.390Z,13.50
2018-11-28T03:03:37.380Z,13.60
2018-11-28T03:04:37.365Z,13.70
2018-11-28T03:05:37.354Z,13.30
2018-11-28T03:06:37.346Z,14.00
2018-11-28T03:07:37.336Z,13.50
2018-11-28T03:08:37.331Z,13.80
2018-11-28T03:09:37.313Z,14.30
2018-11-28T03:10:37.303Z,14.50
2018-11-28T03:11:37.287Z,14.40
2018-11-28T03:12:37.277Z,14.60
2018-11-28T03:13:37.269Z,14.70
2018-11-28T03:14:37.254Z,15.50
2018-11-28T03:15:37.242Z,14.30
2018-11-28T03:16:37.238Z,14.30
2018-11-28T03:17:37.221Z,14.90
2018-11-28T03:18:37.218Z,14.90
2018-11-28T03:19:37.203Z,14.50
2018-11-28T03:20:37.187Z,14.90
2018-11-28T03:21:37.178Z,13.80
2018-11-28T03:22:37.169Z,14.80
2018-11-28T03:23:38.001Z,16.10
2018-11-28T03:24:37.137Z,15.60
2018-11-28T03:25:37.133Z,15.80
2018-11-28T03:26:37.119Z,16.00
2018-11-28T03:27:37.105Z,15.70
2018-11-28T03:28:37.095Z,15.20
2018-11-28T03:29:37.091Z,16.00
2018-11-28T03:30:37.074Z,16.10
2018-11-28T03:31:37.064Z,15.50
2018-11-28T03:32:37.057Z,15.90
2018-11-28T03:33:37.037Z,16.10
2018-11-28T03:34:37.027Z,16.10
2018-11-28T03:35:37.016Z,16.00
2018-11-28T03:36:37.008Z,16.10
2018-11-28T03:37:36.988Z,15.90
2018-11-28T03:38:36.982Z,16.80
2018-11-28T03:39:36.969Z,17.00
2018-11-28T03:40:36.986Z,17.30
2018-11-28T03:41:36.946Z,16.80
2018-11-28T03:42:36.939Z,18.00
2018-11-28T03:43:36.922Z,17.50
2018-11-28T03:44:36.914Z,17.40
2018-11-28T03:45:36.905Z,17.80
2018-11-28T03:46:36.889Z,17.20
2018-11-28T03:47:36.877Z,17.50
2018-11-28T03:48:36.872Z,18.00
2018-11-28T03:49:36.870Z,17.60
2018-11-28T03:50:36.842Z,16.60
2018-11-28T03:51:36.829Z,17.60
2018-11-28T03:52:36.819Z,17.10
2018-11-28T03:53:36.812Z,17.50
2018-11-28T03:54:36.798Z,18.80
2018-11-28T03:55:36.783Z,18.50
2018-11-28T03:56:36.774Z,19.40
2018-11-28T03:57:36.764Z,19.40
2018-11-28T03:58:36.749Z,18.70
2018-11-28T03:59:36.735Z,19.00
2018-11-28T04:00:36.724Z,17.80
2018-11-28T04:01:36.712Z,17.70
2018-11-28T04:02:36.706Z,18.10
2018-11-28T04:03:36.689Z,19.20
2018-11-28T04:04:37.171Z,18.80
2018-11-28T04:05:36.668Z,18.60
2018-11-28T04:06:36.659Z,19.30
2018-11-28T04:07:36.642Z,19.10
2018-11-28T04:08:36.634Z,18.90
2018-11-28T04:09:36.621Z,18.80
2018-11-28T04:10:36.609Z,19.10
2018-11-28T04:11:36.597Z,19.00
2018-11-28T04:12:36.585Z,20.30
2018-11-28T04:13:36.569Z,19.80
2018-11-28T04:14:36.558Z,20.20
2018-11-28T04:15:36.548Z,19.50
2018-11-28T04:16:36.535Z,20.00
2018-11-28T04:17:36.522Z,20.50
2018-11-28T04:18:36.513Z,20.70
2018-11-28T04:19:36.500Z,20.00
2018-11-28T04:20:36.492Z,20.60
2018-11-28T04:21:36.477Z,19.90
2018-11-28T04:22:36.467Z,20.30
2018-11-28T04:23:36.449Z,19.80
2018-11-28T04:24:36.443Z,20.20
2018-11-28T04:25:36.440Z,20.20
2018-11-28T04:26:36.416Z,19.80
2018-11-28T04:27:36.406Z,20.60
2018-11-28T04:28:36.388Z,20.10
2018-11-28T04:29:36.380Z,20.20
2018-11-28T04:30:36.370Z,21.30
2018-11-28T04:31:36.351Z,21.10
2018-11-28T04:32:36.344Z,21.00
2018-11-28T04:33:36.334Z,20.50
2018-11-28T04:34:36.319Z,21.10
2018-11-28T04:35:36.309Z,21.10
2018-11-28T04:36:36.301Z,20.20
2018-11-28T04:37:36.283Z,20.90
2018-11-28T04:38:36.270Z,21.50
2018-11-28T04:39:36.257Z,21.70
2018-11-28T04:40:36.251Z,21.30
2018-11-28T04:41:36.238Z,21.20
2018-11-28T04:42:36.234Z,20.90
2018-11-28T04:43:36.215Z,21.90
2018-11-28T04:44:36.198Z,21.60
2018-11-28T04:45:36.189Z,21.80
2018-11-28T04:46:36.175Z,22.60
2018-11-28T04:47:36.164Z,22.40
2018-11-28T04:48:36.154Z,22.60
2018-11-28T04:49:36.138Z,22.70
2018-11-28T04:50:36.133Z,21.90
2018-11-28T04:51:36.115Z,22.60
2018-11-28T04:52:36.101Z,23.20
2018-11-28T04:53:36.090Z,22.40
2018-11-28T04:54:36.085Z,23.40
2018-11-28T04:55:36.062Z,23.30
2018-11-28T04:56:36.054Z,23.80
2018-11-28T04:57:36.041Z,23.80
2018-11-28T04:58:36.027Z,23.60
2018-11-28T04:59:36.012Z,22.70
2018-11-28T05:00:36.002Z,24.10
2018-11-28T05:01:35.993Z,23.40
2018-11-28T05:02:35.978Z,23.50
2018-11-28T05:03:37.019Z,22.90
2018-11-28T05:04:35.953Z,23.30
2018-11-28T05:05:35.941Z,22.70
2018-11-28T05:06:35.928Z,23.10
2018-11-28T05:07:35.913Z,23.30
2018-11-28T05:08:35.904Z,23.30
2018-11-28T05:09:35.892Z,23.90
2018-11-28T05:10:35.878Z,23.00
2018-11-28T05:11:35.869Z,23.40
2018-11-28T05:12:35.857Z,23.20
2018-11-28T05:13:35.841Z,23.80
2018-11-28T05:14:35.833Z,24.50
2018-11-28T05:15:35.823Z,23.50
2018-11-28T05:16:35.805Z,24.70
2018-11-28T05:17:35.792Z,24.90
2018-11-28T05:18:35.778Z,23.60
2018-11-28T05:19:35.769Z,23.40
2018-11-28T05:20:35.762Z,23.80
2018-11-28T05:21:35.742Z,23.70
2018-11-28T05:22:35.728Z,24.00
2018-11-28T05:23:35.722Z,24.70
2018-11-28T05:24:35.706Z,24.90
2018-11-28T05:25:35.691Z,24.80
2018-11-28T05:26:35.693Z,25.50
2018-11-28T05:27:35.670Z,25.10
2018-11-28T05:28:35.655Z,25.40
2018-11-28T05:29:35.642Z,24.90
2018-11-28T05:30:35.797Z,25.00
2018-11-28T05:31:35.619Z,24.70
2018-11-28T05:32:35.606Z,24.80
2018-11-28T05:33:35.592Z,24.90
2018-11-28T05:34:35.587Z,25.50
2018-11-28T05:35:35.571Z,25.80
2018-11-28T05:36:35.557Z,24.90
2018-11-28T05:37:35.553Z,24.70
2018-11-28T05:38:35.528Z,25.60
2018-11-28T05:39:35.515Z,27.50
2018-11-28T05:40:35.506Z,27.10
2018-11-28T05:41:35.494Z,25.60
2018-11-28T05:42:35.482Z,26.60
2018-11-28T05:43:35.472Z,26.40
2018-11-28T05:44:35.454Z,28.60
2018-11-28T05:45:35.453Z,27.30
2018-11-28T05:46:35.431Z,27.50
2018-11-28T05:47:35.424Z,28.90
2018-11-28T05:48:35.409Z,29.40
2018-11-28T05:49:35.396Z,28.90
2018-11-28T05:50:35.380Z,27.80
2018-11-28T05:51:35.896Z,28.20
2018-11-28T05:52:35.357Z,29.10
2018-11-28T05:53:35.339Z,28.80
2018-11-28T05:54:35.335Z,28.10
2018-11-28T05:55:35.318Z,28.20
2018-11-28T05:56:35.311Z,28.40
2018-11-28T05:57:35.296Z,29.00
2018-11-28T05:58:35.282Z,29.80
2018-11-28T05:59:35.267Z,28.60
2018-11-28T06:00:35.256Z,29.10
2018-11-28T06:01:35.244Z,29.90
2018-11-28T06:02:35.231Z,31.20
2018-11-28T06:03:35.216Z,31.10
2018-11-28T06:04:35.204Z,30.80
2018-11-28T06:05:35.197Z,30.90
2018-11-28T06:06:35.181Z,31.50
2018-11-28T06:07:35.165Z,31.00
2018-11-28T06:08:35.158Z,31.30
2018-11-28T06:09:35.148Z,31.50
2018-11-28T06:10:35.128Z,32.20
2018-11-28T06:11:35.118Z,32.40
2018-11-28T06:12:35.104Z,32.40
2018-11-28T06:13:35.093Z,31.80
2018-11-28T06:14:35.080Z,31.50
2018-11-28T06:15:35.070Z,32.90
2018-11-28T06:16:35.054Z,31.40
2018-11-28T06:17:35.041Z,32.10
2018-11-28T06:18:35.030Z,32.20
2018-11-28T06:19:35.018Z,33.10
2018-11-28T06:20:35.002Z,33.60
2018-11-28T06:21:34.989Z,34.10
2018-11-28T06:22:34.983Z,33.70
2018-11-28T06:23:34.970Z,33.50
2018-11-28T06:24:34.957Z,34.10
2018-11-28T06:25:34.940Z,33.90
2018-11-28T06:26:34.958Z,33.30
2018-11-28T06:27:34.915Z,34.80
2018-11-28T06:28:34.900Z,34.30
2018-11-28T06:29:34.890Z,33.40
2018-11-28T06:30:34.879Z,34.50
2018-11-28T06:31:34.865Z,34.40
2018-11-28T06:32:34.849Z,33.30
2018-11-28T06:33:34.840Z,35.80
2018-11-28T06:34:34.826Z,36.10
2018-11-28T06:35:34.817Z,34.50
2018-11-28T06:36:34.804Z,35.50
2018-11-28T06:37:34.788Z,34.40
2018-11-28T06:38:34.778Z,34.20
2018-11-28T06:39:34.765Z,35.50
2018-11-28T06:40:34.747Z,36.10
2018-11-28T06:41:34.742Z,36.30
2018-11-28T06:42:34.728Z,36.70
2018-11-28T06:43:34.714Z,37.10
2018-11-28T06:44:34.700Z,36.50
2018-11-28T06:45:34.687Z,37.40
2018-11-28T06:46:34.675Z,36.10
2018-11-28T06:47:34.659Z,37.20
2018-11-28T06:48:34.651Z,35.70
2018-11-28T06:49:34.632Z,35.80
2018-11-28T06:50:34.628Z,36.90
2018-11-28T06:51:34.607Z,37.00
2018-11-28T06:52:34.596Z,36.90
2018-11-28T06:53:34.582Z,38.70
2018-11-28T06:54:34.570Z,37.20
2018-11-28T06:55:34.559Z,37.50
2018-11-28T06:56:34.546Z,36.90
2018-11-28T06:57:34.532Z,36.80
2018-11-28T06:58:34.520Z,37.20
2018-11-28T07:01:06.114Z,37.20
2018-11-28T07:02:06.073Z,37.70
2018-11-28T07:03:58.948Z,38.50
2018-11-28T07:04:58.908Z,38.20
2018-11-28T07:06:51.790Z,37.70
2018-11-28T07:07:51.756Z,36.90
2018-11-28T07:09:44.632Z,38.50
2018-11-28T07:10:44.596Z,38.20
2018-11-28T07:12:37.477Z,37.30
2018-11-28T07:13:37.434Z,37.80
2018-11-28T07:15:30.300Z,38.10
2018-11-28T07:16:30.288Z,38.30
2018-11-28T07:18:23.158Z,37.40
2018-11-28T07:19:23.121Z,38.30
2018-11-28T07:21:15.980Z,37.90
2018-11-28T07:22:15.959Z,39.10
2018-11-28T07:24:08.842Z,37.50
2018-11-28T07:25:08.807Z,37.70
2018-11-28T07:27:01.668Z,37.90
2018-11-28T07:28:01.644Z,36.00
2018-11-28T07:29:54.529Z,36.10
2018-11-28T07:30:54.484Z,38.20
2018-11-28T07:32:47.384Z,36.30
2018-11-28T07:33:47.330Z,35.50
2018-11-28T07:35:40.185Z,38.00
2018-11-28T07:36:40.168Z,37.60
2018-11-28T07:38:33.047Z,35.70
2018-11-28T07:39:33.009Z,35.80
2018-11-28T07:40:33.060Z,34.90
2018-11-28T07:41:32.983Z,36.40
2018-11-28T07:42:32.971Z,35.50
2018-11-28T07:43:32.961Z,35.70
2018-11-28T07:44:33.030Z,35.50
2018-11-28T07:45:32.939Z,36.10
2018-11-28T07:46:32.924Z,36.30
2018-11-28T07:47:32.905Z,35.50
2018-11-28T07:48:32.892Z,36.40
2018-11-28T07:49:32.883Z,34.50
2018-11-28T07:50:32.876Z,35.70
2018-11-28T07:51:32.856Z,35.30
2018-11-28T07:52:32.847Z,33.50
2018-11-28T07:53:32.830Z,33.60
2018-11-28T07:54:32.995Z,33.60
2018-11-28T07:55:32.825Z,34.00
2018-11-28T07:56:32.794Z,35.00
2018-11-28T07:57:32.787Z,33.90
2018-11-28T07:58:32.769Z,33.60
2018-11-28T07:59:32.763Z,33.40
2018-11-28T08:00:32.743Z,34.00
2018-11-28T08:01:32.731Z,31.90
2018-11-28T08:02:32.721Z,31.70
2018-11-28T08:03:32.707Z,32.90
2018-11-28T08:04:32.786Z,32.10
2018-11-28T08:05:32.682Z,32.00
2018-11-28T08:06:32.670Z,31.70
2018-11-28T08:07:32.659Z,31.70
2018-11-28T08:08:32.645Z,31.20
2018-11-28T08:09:32.636Z,30.20
2018-11-28T08:10:32.622Z,30.90
2018-11-28T08:11:32.607Z,31.10
2018-11-28T08:12:32.595Z,29.70
2018-11-28T08:13:32.582Z,28.60
2018-11-28T08:14:32.565Z,29.80
2018-11-28T08:15:32.561Z,29.80
2018-11-28T08:16:32.546Z,28.60
2018-11-28T08:17:32.531Z,29.60
2018-11-28T08:18:32.518Z,29.10
2018-11-28T08:19:32.504Z,29.30
2018-11-28T08:20:32.499Z,29.10
2018-11-28T08:21:32.480Z,28.40
2018-11-28T08:22:32.468Z,29.10
2018-11-28T08:23:32.478Z,28.60
2018-11-28T08:24:32.444Z,27.80
2018-11-28T08:25:32.429Z,29.20
2018-11-28T08:26:32.420Z,27.70
2018-11-28T08:27:32.411Z,28.10
2018-11-28T08:28:32.397Z,28.70
2018-11-28T08:29:32.380Z,27.70
2018-11-28T08:30:32.369Z,27.10
2018-11-28T08:31:32.811Z,27.20
2018-11-28T08:32:32.345Z,27.00
2018-11-28T08:33:32.327Z,26.40
2018-11-28T08:34:32.380Z,26.30
2018-11-28T08:35:32.306Z,26.90
2018-11-28T08:36:32.292Z,26.70
2018-11-28T08:37:32.319Z,26.20
2018-11-28T08:38:32.273Z,25.90
2018-11-28T08:39:32.256Z,26.20
2018-11-28T08:40:32.439Z,25.70
2018-11-28T08:41:32.235Z,25.50
2018-11-28T08:42:32.223Z,25.40
2018-11-28T08:43:32.204Z,25.40
2018-11-28T08:44:32.199Z,24.60
2018-11-28T08:45:32.321Z,23.50
2018-11-28T08:46:32.172Z,23.20
2018-11-28T08:47:32.155Z,22.60
2018-11-28T08:48:32.145Z,23.10
2018-11-28T08:49:32.139Z,24.00
2018-11-28T08:50:32.121Z,23.50
2018-11-28T08:51:32.105Z,23.60
2018-11-28T08:52:32.116Z,23.10
2018-11-28T08:53:32.087Z,22.50
2018-11-28T08:54:32.076Z,23.90
2018-11-28T08:55:32.059Z,23.80
2018-11-28T08:56:32.042Z,23.20
2018-11-28T08:57:32.322Z,23.40
2018-11-28T08:58:32.027Z,22.00
2018-11-28T08:59:32.010Z,22.50
2018-11-28T09:00:32.000Z,22.10
2018-11-28T09:01:31.986Z,23.20
2018-11-28T09:02:31.973Z,22.80
2018-11-28T09:03:31.968Z,22.30
2018-11-28T09:04:31.952Z,22.50
2018-11-28T09:05:31.943Z,22.30
2018-11-28T09:06:31.925Z,21.90
2018-11-28T09:07:31.910Z,22.20
2018-11-28T09:08:31.898Z,22.20
2018-11-28T09:09:31.888Z,21.50
2018-11-28T09:10:31.875Z,20.20
2018-11-28T09:11:31.865Z,20.40
2018-11-28T09:12:31.852Z,20.30
2018-11-28T09:13:31.838Z,19.10
2018-11-28T09:14:31.825Z,18.10
2018-11-28T09:15:31.816Z,17.60
2018-11-28T09:16:31.803Z,17.10
2018-11-28T09:17:31.791Z,15.00
2018-11-28T09:18:31.792Z,14.50
2018-11-28T09:19:31.774Z,13.90
2018-11-28T09:20:31.800Z,13.80
2018-11-28T09:21:31.748Z,13.60
2018-11-28T09:22:32.230Z,13.10
2018-11-28T09:23:32.124Z,13.40
2018-11-28T09:24:31.894Z,13.20
2018-11-28T09:25:32.664Z,13.50
2018-11-28T09:26:32.609Z,12.80
2018-11-28T09:27:32.603Z,12.90
2018-11-28T09:28:32.606Z,12.30
2018-11-28T09:29:32.613Z,12.50
2018-11-28T09:30:31.638Z,12.20
2018-11-28T09:31:31.788Z,12.40
2018-11-28T09:32:31.614Z,12.40
2018-11-28T09:33:31.616Z,11.10
2018-11-28T09:34:31.589Z,11.50
2018-11-28T09:35:31.582Z,11.30
2018-11-28T09:36:31.568Z,11.40
2018-11-28T09:37:31.557Z,11.00
2018-11-28T09:38:31.547Z,11.60
2018-11-28T09:39:31.535Z,11.50
2018-11-28T09:40:31.522Z,10.60
2018-11-28T09:41:31.508Z,10.60
2018-11-28T09:42:31.498Z,10.50
2018-11-28T09:43:31.490Z,10.10
2018-11-28T09:44:31.477Z,9.80
2018-11-28T09:45:31.465Z,9.60
2018-11-28T09:46:31.450Z,9.90
2018-11-28T09:47:31.440Z,10.10
2018-11-28T09:48:31.451Z,10.10
2018-11-28T09:49:31.422Z,9.80
2018-11-28T09:50:31.411Z,10.20
2018-11-28T09:51:31.396Z,9.50
2018-11-28T09:52:31.386Z,9.40
2018-11-28T09:53:31.374Z,9.60
2018-11-28T09:54:31.365Z,9.90
2018-11-28T09:55:31.354Z,9.90
2018-11-28T09:56:31.342Z,9.50
2018-11-28T09:57:31.329Z,9.70
2018-11-28T09:58:31.319Z,10.20
2018-11-28T09:59:31.309Z,10.00
2018-11-28T10:00:31.300Z,10.20
2018-11-28T10:01:31.315Z,10.60
2018-11-28T10:02:31.557Z,10.00
2018-11-28T10:03:31.259Z,10.10
2018-11-28T10:04:31.251Z,9.60
2018-11-28T10:05:31.242Z,9.70
2018-11-28T10:06:31.233Z,9.60
2018-11-28T10:07:31.215Z,8.90
2018-11-28T10:08:31.209Z,9.20
2018-11-28T10:09:31.195Z,9.50
2018-11-28T10:10:31.191Z,10.10
2018-11-28T10:11:31.174Z,9.60
2018-11-28T10:12:31.171Z,9.00
2018-11-28T10:13:31.182Z,9.30
2018-11-28T10:14:31.139Z,9.40
2018-11-28T10:15:35.529Z,9.70
2018-11-28T10:16:31.120Z,9.30
2018-11-28T10:17:31.106Z,9.60
2018-11-28T10:18:31.102Z,9.70
2018-11-28T10:19:31.086Z,9.80
2018-11-28T10:20:31.079Z,9.20
2018-11-28T10:21:31.063Z,9.80
2018-11-28T10:22:31.054Z,9.60
2018-11-28T10:23:31.044Z,9.30
2018-11-28T10:24:31.040Z,9.70
2018-11-28T10:25:31.023Z,8.80
2018-11-28T10:26:31.010Z,9.20
2018-11-28T10:27:31.011Z,9.50
2018-11-28T10:28:30.990Z,9.10
2018-11-28T10:29:30.980Z,9.10
2018-11-28T10:30:31.123Z,9.30
2018-11-28T10:31:30.956Z,8.70
2018-11-28T10:32:30.944Z,8.60
2018-11-28T10:33:30.941Z,8.30
2018-11-28T10:34:31.090Z,8.60
2018-11-28T10:35:30.911Z,8.40
2018-11-28T10:36:30.909Z,8.00
2018-11-28T10:37:30.897Z,8.10
2018-11-28T10:38:30.880Z,7.80
2018-11-28T10:39:30.870Z,7.70
2018-11-28T10:40:30.860Z,7.90
2018-11-28T10:41:30.850Z,7.60
2018-11-28T10:42:30.839Z,8.20
2018-11-28T10:43:30.828Z,7.40
2018-11-28T10:44:30.818Z,7.60
2018-11-28T10:45:30.815Z,7.30
2018-11-28T10:46:30.796Z,7.60
2018-11-28T10:47:30.786Z,7.30
2018-11-28T10:48:30.778Z,7.10
2018-11-28T10:49:30.762Z,6.40
2018-11-28T10:50:30.776Z,6.30
2018-11-28T10:51:30.745Z,6.60
2018-11-28T10:52:30.732Z,6.90
2018-11-28T10:53:30.903Z,6.70
2018-11-28T10:54:30.722Z,6.30
2018-11-28T10:55:30.783Z,6.80
2018-11-28T10:56:30.990Z,6.80
2018-11-28T10:57:30.682Z,7.00
2018-11-28T10:58:30.758Z,6.70
2018-11-28T10:59:30.660Z,6.90
2018-11-28T11:00:30.760Z,6.70
2018-11-28T11:01:31.408Z,6.60
2018-11-28T11:02:30.627Z,6.70
2018-11-28T11:03:30.625Z,6.70
2018-11-28T11:04:30.608Z,6.70
2018-11-28T11:05:30.598Z,6.40
2018-11-28T11:06:30.586Z,6.60
2018-11-28T11:07:30.573Z,6.40
2018-11-28T11:08:30.568Z,6.60
2018-11-28T11:09:30.552Z,6.80
2018-11-28T11:10:30.544Z,6.80
2018-11-28T11:11:30.535Z,6.50
2018-11-28T11:12:31.125Z,6.20
2018-11-28T11:13:30.513Z,6.80
2018-11-28T11:14:30.508Z,6.20
2018-11-28T11:15:30.490Z,6.70
2018-11-28T11:16:30.491Z,6.70
2018-11-28T11:17:30.472Z,6.50
2018-11-28T11:18:30.485Z,6.10
2018-11-28T11:19:30.449Z,5.90
2018-11-28T11:20:30.548Z,6.10
2018-11-28T11:21:30.437Z,6.00
2018-11-28T11:22:30.439Z,6.50
2018-11-28T11:23:30.413Z,6.10
2018-11-28T11:24:30.399Z,5.50
2018-11-28T11:25:30.399Z,5.80
2018-11-28T11:26:30.380Z,6.10
2018-11-28T11:27:30.368Z,6.20
2018-11-28T11:28:30.360Z,5.80
2018-11-28T11:29:30.345Z,5.90
2018-11-28T11:30:30.631Z,5.80
2018-11-28T11:31:30.637Z,6.20
2018-11-28T11:32:30.316Z,6.30
2018-11-28T11:33:30.304Z,6.50
2018-11-28T11:34:30.324Z,6.50
2018-11-28T11:35:30.284Z,6.30
2018-11-28T11:36:30.274Z,5.90
2018-11-28T11:37:31.171Z,6.80
2018-11-28T11:38:30.250Z,6.60
2018-11-28T11:39:30.244Z,6.70
2018-11-28T11:40:30.230Z,6.60
2018-11-28T11:41:30.226Z,6.70
2018-11-28T11:42:30.215Z,6.50
2018-11-28T11:43:30.199Z,6.60
2018-11-28T11:44:30.191Z,7.20
2018-11-28T11:45:30.184Z,6.90
2018-11-28T11:46:30.170Z,6.60
2018-11-28T11:47:30.161Z,6.90
2018-11-28T11:48:30.149Z,6.70
2018-11-28T11:49:30.222Z,6.50
2018-11-28T11:50:30.128Z,6.30
2018-11-28T11:51:30.134Z,6.80
2018-11-28T11:52:30.108Z,6.60
2018-11-28T11:53:30.101Z,6.70
2018-11-28T11:54:31.258Z,6.70
2018-11-28T11:55:30.081Z,6.40
2018-11-28T11:56:30.074Z,6.80
2018-11-28T11:57:30.059Z,6.50
2018-11-28T11:58:30.048Z,6.60
2018-11-28T11:59:30.041Z,6.80
2018-11-28T12:00:30.027Z,6.50
2018-11-28T12:01:30.021Z,6.80
2018-11-28T12:02:30.012Z,6.40
2018-11-28T12:03:29.993Z,6.50
2018-11-28T12:04:29.990Z,6.10
2018-11-28T12:05:29.977Z,6.30
2018-11-28T12:06:29.964Z,6.40
2018-11-28T12:07:29.957Z,6.20
2018-11-28T12:08:29.948Z,6.60
2018-11-28T12:09:29.936Z,6.70
2018-11-28T12:10:29.938Z,6.50
2018-11-28T12:11:29.917Z,6.60
2018-11-28T12:12:29.941Z,6.50
2018-11-28T12:13:29.902Z,6.70
2018-11-28T12:14:29.882Z,6.60
2018-11-28T12:15:29.877Z,6.60
2018-11-28T12:16:30.169Z,6.60
2018-11-28T12:17:29.946Z,6.40
2018-11-28T12:18:29.858Z,6.30
2018-11-28T12:19:29.838Z,6.20
2018-11-28T12:20:29.825Z,6.10
2018-11-28T12:21:29.861Z,6.20
2018-11-28T12:22:29.988Z,6.30
2018-11-28T12:23:30.004Z,6.20
2018-11-28T12:24:29.886Z,5.90
2018-11-28T12:25:29.874Z,6.10
2018-11-28T12:26:29.954Z,6.20
2018-11-28T12:27:30.030Z,6.00
2018-11-28T12:28:29.787Z,5.90
2018-11-28T12:29:29.757Z,6.20
2018-11-28T12:30:29.801Z,6.20
2018-11-28T12:31:29.772Z,6.80
2018-11-28T12:32:29.704Z,6.20
2018-11-28T12:33:30.747Z,6.10
2018-11-28T12:34:29.710Z,5.70
2018-11-28T12:35:29.729Z,5.70
2018-11-28T12:36:29.669Z,5.90
2018-11-28T12:37:29.709Z,6.00
2018-11-28T12:38:29.671Z,6.00
2018-11-28T12:39:29.629Z,6.00
2018-11-28T12:40:29.637Z,6.20
2018-11-28T12:41:29.732Z,5.80
2018-11-28T12:42:29.830Z,6.10
2018-11-28T12:43:29.775Z,6.30
2018-11-28T12:44:29.591Z,5.90
2018-11-28T12:45:29.619Z,6.00
2018-11-28T12:46:29.567Z,5.80
2018-11-28T12:47:29.570Z,6.00
2018-11-28T12:48:29.550Z,6.20
2018-11-28T12:49:29.571Z,6.10
2018-11-28T12:50:30.137Z,6.30
2018-11-28T12:51:29.530Z,6.00
2018-11-28T12:52:29.511Z,6.10
2018-11-28T12:53:29.495Z,6.20
2018-11-28T12:54:30.149Z,6.10
2018-11-28T12:55:29.467Z,6.40
2018-11-28T12:56:29.467Z,6.10
2018-11-28T12:57:29.454Z,6.00
2018-11-28T12:58:29.450Z,6.20
2018-11-28T12:59:29.454Z,6.20
2018-11-28T13:00:29.420Z,6.10
2018-11-28T13:01:29.417Z,5.90
2018-11-28T13:02:29.397Z,6.30
2018-11-28T13:03:29.434Z,6.10
2018-11-28T13:04:29.384Z,6.10
2018-11-28T13:05:29.503Z,5.90
2018-11-28T13:06:29.366Z,6.00
2018-11-28T13:07:29.368Z,5.80
2018-11-28T13:08:29.369Z,6.20
2018-11-28T13:09:29.345Z,5.70
2018-11-28T13:10:29.350Z,5.90
2018-11-28T13:11:29.326Z,6.10
2018-11-28T13:12:29.346Z,6.10
2018-11-28T13:13:29.301Z,5.90